sensor_id;sensor_type;location;lat;lon;timestamp;pressure;altitude;pressure_sealevel;temperature;humidity
35443;BME280;21561;55.654;37.592;2023-03-04T00:02:18;97648.25;;;-2.88;100.00
35443;BME280;21561;55.654;37.592;2023-03-04T00:04:45;97645.69;;;-2.88;100.00
35443;BME280;21561;55.654;37.592;2023-03-04T00:07:12;97648.22;;;-2.89;100.00
35443;BME280;21561;55.654;37.592;2023-03-04T00:09:43;97640.63;;;-2.88;100.00
35443;BME280;21561;55.654;37.592;2023-03-04T00:12:11;97637.28;;;-2.86;100.00
35443;BME280;21561;55.654;37.592;2023-03-04T00:14:38;97636.41;;;-2.89;100.00
35443;BME280;21561;55.654;37.592;2023-03-04T00:17:05;97633.88;;;-2.85;100.00
35443;BME280;21561;55.654;37.592;2023-03-04T00:19:32;97630.56;;;-2.81;100.00
35443;BME280;21561;55.654;37.592;2023-03-04T00:22:02;97625.44;;;-2.84;100.00
35443;BME280;21561;55.654;37.592;2023-03-04T00:24:29;97625.44;;;-2.84;100.00
35443;BME280;21561;55.654;37.592;2023-03-04T00:26:56;97617.88;;;-2.81;100.00
35443;BME280;21561;55.654;37.592;2023-03-04T00:29:23;97621.31;;;-2.78;100.00
35443;BME280;21561;55.654;37.592;2023-03-04T00:31:50;97613.72;;;-2.76;100.00
35443;BME280;21561;55.654;37.592;2023-03-04T00:34:17;97605.19;;;-2.81;100.00
35443;BME280;21561;55.654;37.592;2023-03-04T00:36:44;97607.75;;;-2.78;100.00
35443;BME280;21561;55.654;37.592;2023-03-04T00:39:11;97611.13;;;-2.81;100.00
35443;BME280;21561;55.654;37.592;2023-03-04T00:41:38;97595.00;;;-2.83;100.00
35443;BME280;21561;55.654;37.592;2023-03-04T00:44:06;97603.47;;;-2.82;100.00
35443;BME280;21561;55.654;37.592;2023-03-04T00:46:33;97594.94;;;-2.88;100.00
35443;BME280;21561;55.654;37.592;2023-03-04T00:48:59;97593.19;;;-2.92;100.00
35443;BME280;21561;55.654;37.592;2023-03-04T00:51:26;97588.97;;;-2.91;100.00
35443;BME280;21561;55.654;37.592;2023-03-04T00:53:53;97599.09;;;-2.94;100.00
35443;BME280;21561;55.654;37.592;2023-03-04T00:56:20;97599.03;;;-2.99;100.00
35443;BME280;21561;55.654;37.592;2023-03-04T00:58:47;97596.50;;;-2.99;100.00
35443;BME280;21561;55.654;37.592;2023-03-04T01:01:13;97596.41;;;-3.07;100.00
35443;BME280;21561;55.654;37.592;2023-03-04T01:03:40;97599.72;;;-3.09;100.00
35443;BME280;21561;55.654;37.592;2023-03-04T01:06:08;97600.59;;;-3.07;100.00
35443;BME280;21561;55.654;37.592;2023-03-04T01:08:34;97594.69;;;-3.06;100.00
35443;BME280;21561;55.654;37.592;2023-03-04T01:11:01;97593.03;;;-3.04;100.00
35443;BME280;21561;55.654;37.592;2023-03-04T01:13:28;97600.66;;;-3.04;100.00
35443;BME280;21561;55.654;37.592;2023-03-04T01:15:55;97592.13;;;-3.08;100.00
35443;BME280;21561;55.654;37.592;2023-03-04T01:18:23;97592.06;;;-3.14;100.00
35443;BME280;21561;55.654;37.592;2023-03-04T01:20:50;97589.44;;;-3.18;100.00
35443;BME280;21561;55.654;37.592;2023-03-04T01:23:17;97594.56;;;-3.15;100.00
35443;BME280;21561;55.654;37.592;2023-03-04T01:25:44;97607.97;;;-3.24;100.00
35443;BME280;21561;55.654;37.592;2023-03-04T01:28:11;97597.66;;;-3.35;100.00
35443;BME280;21561;55.654;37.592;2023-03-04T01:30:38;97603.50;;;-3.40;100.00
35443;BME280;21561;55.654;37.592;2023-03-04T01:33:04;97596.75;;;-3.40;100.00
35443;BME280;21561;55.654;37.592;2023-03-04T01:35:31;97590.75;;;-3.45;100.00
35443;BME280;21561;55.654;37.592;2023-03-04T01:37:58;97592.41;;;-3.47;100.00
35443;BME280;21561;55.654;37.592;2023-03-04T01:40:25;97582.94;;;-3.57;100.00
35443;BME280;21561;55.654;37.592;2023-03-04T01:42:52;97577.97;;;-3.53;100.00
35443;BME280;21561;55.654;37.592;2023-03-04T01:45:19;97585.47;;;-3.57;100.00
35443;BME280;21561;55.654;37.592;2023-03-04T01:47:47;97577.00;;;-3.59;100.00
35443;BME280;21561;55.654;37.592;2023-03-04T01:50:19;97575.34;;;-3.57;100.00
35443;BME280;21561;55.654;37.592;2023-03-04T01:52:47;97575.28;;;-3.62;100.00
35443;BME280;21561;55.654;37.592;2023-03-04T01:55:16;97570.28;;;-3.57;100.00
35443;BME280;21561;55.654;37.592;2023-03-04T01:57:45;97564.38;;;-3.56;100.00
35443;BME280;21561;55.654;37.592;2023-03-04T02:00:26;97567.81;;;-3.53;100.00
35443;BME280;21561;55.654;37.592;2023-03-04T02:02:57;97559.22;;;-3.61;100.00
35443;BME280;21561;55.654;37.592;2023-03-04T02:05:26;97549.97;;;-3.60;100.00
35443;BME280;21561;55.654;37.592;2023-03-04T02:07:54;97549.09;;;-3.61;100.00
35443;BME280;21561;55.654;37.592;2023-03-04T02:10:22;97544.00;;;-3.61;100.00
35443;BME280;21561;55.654;37.592;2023-03-04T02:12:49;97546.56;;;-3.59;100.00
35443;BME280;21561;55.654;37.592;2023-03-04T02:15:16;97542.34;;;-3.60;100.00
35443;BME280;21561;55.654;37.592;2023-03-04T02:17:43;97545.72;;;-3.60;100.00
35443;BME280;21561;55.654;37.592;2023-03-04T02:26:20;97520.47;;;-3.52;100.00
35443;BME280;21561;55.654;37.592;2023-03-04T02:28:50;97517.00;;;-3.59;100.00
35443;BME280;21561;55.654;37.592;2023-03-04T02:33:51;97511.88;;;-3.63;100.00
35443;BME280;21561;55.654;37.592;2023-03-04T02:36:19;97509.25;;;-3.71;100.00
35443;BME280;21561;55.654;37.592;2023-03-04T02:38:49;97507.50;;;-3.74;100.00
35443;BME280;21561;55.654;37.592;2023-03-04T02:41:19;97498.97;;;-3.79;100.00
35443;BME280;21561;55.654;37.592;2023-03-04T02:43:49;97498.94;;;-3.82;100.00
35443;BME280;21561;55.654;37.592;2023-03-04T02:46:17;97486.13;;;-3.90;100.00
35443;BME280;21561;55.654;37.592;2023-03-04T02:48:44;97490.34;;;-3.90;100.00
35443;BME280;21561;55.654;37.592;2023-03-04T02:51:11;97495.34;;;-3.95;100.00
35443;BME280;21561;55.654;37.592;2023-03-04T02:53:38;97489.44;;;-3.95;100.00
35443;BME280;21561;55.654;37.592;2023-03-04T02:56:05;97482.56;;;-4.03;100.00
35443;BME280;21561;55.654;37.592;2023-03-04T02:58:32;97470.72;;;-4.05;100.00
35443;BME280;21561;55.654;37.592;2023-03-04T03:00:59;97480.03;;;-4.03;100.00
35443;BME280;21561;55.654;37.592;2023-03-04T03:03:26;97474.13;;;-4.03;100.00
35443;BME280;21561;55.654;37.592;2023-03-04T03:05:53;97474.06;;;-4.06;100.00
35443;BME280;21561;55.654;37.592;2023-03-04T03:08:20;97473.22;;;-4.07;100.00
35443;BME280;21561;55.654;37.592;2023-03-04T03:10:47;97468.22;;;-4.04;100.00
35443;BME280;21561;55.654;37.592;2023-03-04T03:13:13;97463.97;;;-4.03;100.00
35443;BME280;21561;55.654;37.592;2023-03-04T03:15:40;97466.53;;;-4.01;100.00
35443;BME280;21561;55.654;37.592;2023-03-04T03:18:08;97480.03;;;-4.03;100.00
35443;BME280;21561;55.654;37.592;2023-03-04T03:20:36;97463.06;;;-4.08;100.00
35443;BME280;21561;55.654;37.592;2023-03-04T03:23:03;97462.25;;;-4.07;100.00
35443;BME280;21561;55.654;37.592;2023-03-04T03:25:30;97459.69;;;-4.06;100.00
35443;BME280;21561;55.654;37.592;2023-03-04T03:27:57;97458.97;;;-3.98;100.00
35443;BME280;21561;55.654;37.592;2023-03-04T03:30:24;97459.72;;;-4.04;100.00
35443;BME280;21561;55.654;37.592;2023-03-04T03:32:51;97456.34;;;-4.05;100.00
35443;BME280;21561;55.654;37.592;2023-03-04T03:35:17;97447.03;;;-4.07;100.00
35443;BME280;21561;55.654;37.592;2023-03-04T03:37:44;97449.53;;;-4.09;100.00
35443;BME280;21561;55.654;37.592;2023-03-04T03:40:11;97447.03;;;-4.06;100.00
35443;BME280;21561;55.654;37.592;2023-03-04T03:42:38;97437.81;;;-4.04;100.00
35443;BME280;21561;55.654;37.592;2023-03-04T03:45:06;97439.50;;;-4.03;100.00
35443;BME280;21561;55.654;37.592;2023-03-04T03:47:33;97436.16;;;-4.01;100.00
35443;BME280;21561;55.654;37.592;2023-03-04T03:49:59;97435.44;;;-3.93;100.00
35443;BME280;21561;55.654;37.592;2023-03-04T03:52:26;97440.44;;;-3.96;100.00
35443;BME280;21561;55.654;37.592;2023-03-04T03:54:53;97444.56;;;-4.03;100.00
35443;BME280;21561;55.654;37.592;2023-03-04T03:57:20;97436.09;;;-4.05;100.00
35443;BME280;21561;55.654;37.592;2023-03-04T03:59:46;97422.59;;;-4.04;100.00
35443;BME280;21561;55.654;37.592;2023-03-04T04:02:13;97422.63;;;-4.00;100.00
35443;BME280;21561;55.654;37.592;2023-03-04T04:04:40;97402.41;;;-3.97;100.00
35443;BME280;21561;55.654;37.592;2023-03-04T04:07:07;97402.50;;;-3.91;100.00
35443;BME280;21561;55.654;37.592;2023-03-04T04:09:34;97392.41;;;-3.88;100.00
35443;BME280;21561;55.654;37.592;2023-03-04T04:12:02;97384.00;;;-3.84;100.00
35443;BME280;21561;55.654;37.592;2023-03-04T04:14:30;97384.91;;;-3.82;100.00
35443;BME280;21561;55.654;37.592;2023-03-04T04:16:56;97387.47;;;-3.79;100.00
35443;BME280;21561;55.654;37.592;2023-03-04T04:19:23;97386.66;;;-3.76;100.00
35443;BME280;21561;55.654;37.592;2023-03-04T04:21:51;97386.72;;;-3.72;100.00
35443;BME280;21561;55.654;37.592;2023-03-04T04:24:18;97375.78;;;-3.68;100.00
35443;BME280;21561;55.654;37.592;2023-03-04T04:26:45;97373.28;;;-3.65;100.00
35443;BME280;21561;55.654;37.592;2023-03-04T04:29:12;97377.53;;;-3.63;100.00
35443;BME280;21561;55.654;37.592;2023-03-04T04:31:40;97369.06;;;-3.66;100.00
35443;BME280;21561;55.654;37.592;2023-03-04T04:34:07;97384.28;;;-3.62;100.00
35443;BME280;21561;55.654;37.592;2023-03-04T04:36:34;97375.78;;;-3.68;100.00
35443;BME280;21561;55.654;37.592;2023-03-04T04:39:02;97383.41;;;-3.68;100.00
35443;BME280;21561;55.654;37.592;2023-03-04T04:41:34;97401.16;;;-3.68;100.00
35443;BME280;21561;55.654;37.592;2023-03-04T04:44:02;97385.94;;;-3.68;100.00
35443;BME280;21561;55.654;37.592;2023-03-04T04:46:28;97364.00;;;-3.66;100.00
35443;BME280;21561;55.654;37.592;2023-03-04T04:48:55;97364.91;;;-3.59;100.00
35443;BME280;21561;55.654;37.592;2023-03-04T04:51:22;97375.91;;;-3.58;100.00
35443;BME280;21561;55.654;37.592;2023-03-04T04:53:49;97367.53;;;-3.53;100.00
35443;BME280;21561;55.654;37.592;2023-03-04T04:56:19;97379.41;;;-3.47;100.00
35443;BME280;21561;55.654;37.592;2023-03-04T04:58:47;97368.47;;;-3.44;100.00
35443;BME280;21561;55.654;37.592;2023-03-04T05:01:14;97370.25;;;-3.37;100.00
35443;BME280;21561;55.654;37.592;2023-03-04T05:03:42;97369.41;;;-3.35;100.00
35443;BME280;21561;55.654;37.592;2023-03-04T05:06:10;97369.47;;;-3.29;100.00
35443;BME280;21561;55.654;37.592;2023-03-04T05:08:38;97359.41;;;-3.22;100.00
35443;BME280;21561;55.654;37.592;2023-03-04T05:11:05;97359.47;;;-3.19;100.00
35443;BME280;21561;55.654;37.592;2023-03-04T05:13:32;97353.56;;;-3.17;100.00
35443;BME280;21561;55.654;37.592;2023-03-04T05:16:00;97350.22;;;-3.11;100.00
35443;BME280;21561;55.654;37.592;2023-03-04T05:18:27;97352.84;;;-3.05;100.00
35443;BME280;21561;55.654;37.592;2023-03-04T05:20:59;97347.84;;;-2.96;100.00
35443;BME280;21561;55.654;37.592;2023-03-04T05:23:28;97350.38;;;-2.93;100.00
35443;BME280;21561;55.654;37.592;2023-03-04T05:25:55;97344.47;;;-2.95;100.00
35443;BME280;21561;55.654;37.592;2023-03-04T05:28:22;97351.25;;;-2.94;100.00
35443;BME280;21561;55.654;37.592;2023-03-04T05:30:49;97346.22;;;-2.91;100.00
35443;BME280;21561;55.654;37.592;2023-03-04T05:33:17;97344.53;;;-2.85;100.00
35443;BME280;21561;55.654;37.592;2023-03-04T05:35:45;97353.03;;;-2.83;100.00
35443;BME280;21561;55.654;37.592;2023-03-04T05:38:15;97349.69;;;-2.79;100.00
35443;BME280;21561;55.654;37.592;2023-03-04T05:40:42;97346.28;;;-2.81;100.00
35443;BME280;21561;55.654;37.592;2023-03-04T05:43:10;97344.63;;;-2.76;100.00
35443;BME280;21561;55.654;37.592;2023-03-04T05:45:36;97345.50;;;-2.74;100.00
35443;BME280;21561;55.654;37.592;2023-03-04T05:48:05;97347.19;;;-2.72;100.00
35443;BME280;21561;55.654;37.592;2023-03-04T05:50:32;97337.13;;;-2.65;100.00
35443;BME280;21561;55.654;37.592;2023-03-04T05:53:00;97332.03;;;-2.65;100.00
35443;BME280;21561;55.654;37.592;2023-03-04T05:55:27;97332.91;;;-2.62;100.00
35443;BME280;21561;55.654;37.592;2023-03-04T05:57:56;97330.38;;;-2.59;100.00
35443;BME280;21561;55.654;37.592;2023-03-04T06:00:23;97327.03;;;-2.55;100.00
35443;BME280;21561;55.654;37.592;2023-03-04T06:02:50;97329.63;;;-2.48;100.00
35443;BME280;21561;55.654;37.592;2023-03-04T06:05:18;97321.16;;;-2.47;100.00
35443;BME280;21561;55.654;37.592;2023-03-04T06:07:45;97323.75;;;-2.41;100.00
35443;BME280;21561;55.654;37.592;2023-03-04T06:10:14;97317.88;;;-2.34;100.00
35443;BME280;21561;55.654;37.592;2023-03-04T06:12:41;97320.47;;;-2.25;100.00
35443;BME280;21561;55.654;37.592;2023-03-04T06:15:08;97322.16;;;-2.24;100.00
35443;BME280;21561;55.654;37.592;2023-03-04T06:17:39;97311.19;;;-2.17;100.00
35443;BME280;21561;55.654;37.592;2023-03-04T06:20:09;97309.53;;;-2.08;100.00
35443;BME280;21561;55.654;37.592;2023-03-04T06:22:36;97309.59;;;-1.99;100.00
35443;BME280;21561;55.654;37.592;2023-03-04T06:25:03;97307.94;;;-1.93;100.00
35443;BME280;21561;55.654;37.592;2023-03-04T06:27:30;97306.25;;;-1.89;100.00
35443;BME280;21561;55.654;37.592;2023-03-04T06:29:57;97302.88;;;-1.85;100.00
35443;BME280;21561;55.654;37.592;2023-03-04T06:32:24;97306.25;;;-1.89;100.00
35443;BME280;21561;55.654;37.592;2023-03-04T06:34:51;97305.38;;;-1.94;100.00
35443;BME280;21561;55.654;37.592;2023-03-04T06:37:18;97295.22;;;-1.93;100.00
35443;BME280;21561;55.654;37.592;2023-03-04T06:39:45;97301.16;;;-1.95;100.00
35443;BME280;21561;55.654;37.592;2023-03-04T06:42:13;97300.28;;;-1.94;100.00
35443;BME280;21561;55.654;37.592;2023-03-04T06:44:40;97288.44;;;-1.95;100.00
35443;BME280;21561;55.654;37.592;2023-03-04T06:47:07;97283.38;;;-1.94;100.00
35443;BME280;21561;55.654;37.592;2023-03-04T06:49:34;97279.13;;;-1.87;100.00
35443;BME280;21561;55.654;37.592;2023-03-04T06:52:00;97271.53;;;-1.84;100.00
35443;BME280;21561;55.654;37.592;2023-03-04T06:54:27;97280.88;;;-1.83;100.00
35443;BME280;21561;55.654;37.592;2023-03-04T06:56:54;97277.44;;;-1.85;100.00
35443;BME280;21561;55.654;37.592;2023-03-04T06:59:22;97274.91;;;-1.83;100.00
35443;BME280;21561;55.654;37.592;2023-03-04T07:01:49;97269.88;;;-1.79;100.00
35443;BME280;21561;55.654;37.592;2023-03-04T07:04:15;97267.34;;;-1.73;100.00
35443;BME280;21561;55.654;37.592;2023-03-04T07:06:42;97257.19;;;-1.60;100.00
35443;BME280;21561;55.654;37.592;2023-03-04T07:09:09;97257.22;;;-1.48;100.00
35443;BME280;21561;55.654;37.592;2023-03-04T07:11:36;97253.00;;;-1.37;100.00
35443;BME280;21561;55.654;37.592;2023-03-04T07:14:04;97243.72;;;-1.35;100.00
35443;BME280;21561;55.654;37.592;2023-03-04T07:16:31;97247.09;;;-1.29;100.00
35443;BME280;21561;55.654;37.592;2023-03-04T07:18:58;97240.28;;;-1.37;99.95
35443;BME280;21561;55.654;37.592;2023-03-04T07:21:25;97239.47;;;-1.31;100.00
35443;BME280;21561;55.654;37.592;2023-03-04T07:23:52;97235.22;;;-1.38;100.00
35443;BME280;21561;55.654;37.592;2023-03-04T07:26:19;97230.09;;;-1.46;100.00
35443;BME280;21561;55.654;37.592;2023-03-04T07:28:46;97229.25;;;-1.56;100.00
35443;BME280;21561;55.654;37.592;2023-03-04T07:31:23;97222.47;;;-1.54;100.00
35443;BME280;21561;55.654;37.592;2023-03-04T07:33:50;97226.69;;;-1.60;100.00
35443;BME280;21561;55.654;37.592;2023-03-04T07:36:17;97219.94;;;-1.49;100.00
35443;BME280;21561;55.654;37.592;2023-03-04T07:38:47;97214.88;;;-1.30;100.00
35443;BME280;21561;55.654;37.592;2023-03-04T07:41:15;97211.50;;;-1.23;100.00
35443;BME280;21561;55.654;37.592;2023-03-04T07:43:42;97207.22;;;-1.24;100.00
35443;BME280;21561;55.654;37.592;2023-03-04T07:46:09;97207.25;;;-1.30;100.00
35443;BME280;21561;55.654;37.592;2023-03-04T07:48:37;97212.31;;;-1.32;100.00
35443;BME280;21561;55.654;37.592;2023-03-04T07:51:12;97205.56;;;-1.25;100.00
35443;BME280;21561;55.654;37.592;2023-03-04T07:53:41;97199.59;;;-1.30;100.00
35443;BME280;21561;55.654;37.592;2023-03-04T07:56:12;97199.59;;;-1.26;100.00
35443;BME280;21561;55.654;37.592;2023-03-04T07:58:39;97201.28;;;-1.29;100.00
35443;BME280;21561;55.654;37.592;2023-03-04T08:01:15;97192.81;;;-1.30;100.00
35443;BME280;21561;55.654;37.592;2023-03-04T08:03:43;97201.31;;;-1.32;100.00
35443;BME280;21561;55.654;37.592;2023-03-04T08:06:13;97184.34;;;-1.27;100.00
35443;BME280;21561;55.654;37.592;2023-03-04T08:08:40;97189.44;;;-1.21;100.00
35443;BME280;21561;55.654;37.592;2023-03-04T08:11:13;97188.56;;;-1.17;100.00
35443;BME280;21561;55.654;37.592;2023-03-04T08:13:41;97182.63;;;-1.19;100.00
35443;BME280;21561;55.654;37.592;2023-03-04T08:16:11;97179.25;;;-1.13;100.00
35443;BME280;21561;55.654;37.592;2023-03-04T08:18:46;97175.84;;;-1.08;100.00
35443;BME280;21561;55.654;37.592;2023-03-04T08:21:17;97177.53;;;-0.98;100.00
35443;BME280;21561;55.654;37.592;2023-03-04T08:23:45;97172.47;;;-0.91;100.00
35443;BME280;21561;55.654;37.592;2023-03-04T08:26:24;97167.34;;;-0.85;99.99
35443;BME280;21561;55.654;37.592;2023-03-04T08:28:52;97162.28;;;-0.94;99.47
35443;BME280;21561;55.654;37.592;2023-03-04T08:31:20;97165.66;;;-0.96;99.28
35443;BME280;21561;55.654;37.592;2023-03-04T08:33:47;97157.19;;;-0.91;99.67
35443;BME280;21561;55.654;37.592;2023-03-04T08:36:14;97157.16;;;-0.88;100.00
35443;BME280;21561;55.654;37.592;2023-03-04T08:38:41;97163.09;;;-0.92;99.00
35443;BME280;21561;55.654;37.592;2023-03-04T08:41:09;97155.47;;;-0.89;99.73
35443;BME280;21561;55.654;37.592;2023-03-04T08:43:36;97154.59;;;-0.87;99.26
35443;BME280;21561;55.654;37.592;2023-03-04T08:46:03;97150.38;;;-0.89;98.94
35443;BME280;21561;55.654;37.592;2023-03-04T08:48:30;97147.00;;;-0.94;98.51
35443;BME280;21561;55.654;37.592;2023-03-04T08:50:58;97138.50;;;-0.87;98.44
35443;BME280;21561;55.654;37.592;2023-03-04T08:53:25;97139.31;;;-0.79;98.55
35443;BME280;21561;55.654;37.592;2023-03-04T08:55:51;97135.91;;;-0.78;97.71
35443;BME280;21561;55.654;37.592;2023-03-04T08:58:19;97131.66;;;-0.76;98.27
35443;BME280;21561;55.654;37.592;2023-03-04T09:00:47;97129.97;;;-0.71;98.38
35443;BME280;21561;55.654;37.592;2023-03-04T09:03:15;97124.88;;;-0.71;98.64
35443;BME280;21561;55.654;37.592;2023-03-04T09:05:44;97121.44;;;-0.62;98.61
35443;BME280;21561;55.654;37.592;2023-03-04T09:08:12;97112.94;;;-0.53;99.37
35443;BME280;21561;55.654;37.592;2023-03-04T09:10:39;97111.19;;;-0.42;98.78
35443;BME280;21561;55.654;37.592;2023-03-04T09:13:06;97109.47;;;-0.34;98.31
35443;BME280;21561;55.654;37.592;2023-03-04T09:15:33;97109.44;;;-0.31;98.09
35443;BME280;21561;55.654;37.592;2023-03-04T09:18:04;97107.75;;;-0.32;97.10
35443;BME280;21561;55.654;37.592;2023-03-04T09:20:31;97099.28;;;-0.37;96.21
35443;BME280;21561;55.654;37.592;2023-03-04T09:22:58;97092.47;;;-0.38;95.57
35443;BME280;21561;55.654;37.592;2023-03-04T09:25:25;97083.94;;;-0.31;96.15
35443;BME280;21561;55.654;37.592;2023-03-04T09:27:51;97082.22;;;-0.29;95.84
35443;BME280;21561;55.654;37.592;2023-03-04T09:30:19;97075.47;;;-0.36;94.45
35443;BME280;21561;55.654;37.592;2023-03-04T09:32:46;97075.53;;;-0.45;93.95
35443;BME280;21561;55.654;37.592;2023-03-04T09:35:13;97069.59;;;-0.50;94.20
35443;BME280;21561;55.654;37.592;2023-03-04T09:37:40;97062.00;;;-0.56;94.15
35443;BME280;21561;55.654;37.592;2023-03-04T09:40:10;97058.59;;;-0.55;94.48
35443;BME280;21561;55.654;37.592;2023-03-04T09:42:53;97060.28;;;-0.48;94.25
35443;BME280;21561;55.654;37.592;2023-03-04T09:45:24;97044.94;;;-0.45;93.74
35443;BME280;21561;55.654;37.592;2023-03-04T09:47:53;97047.44;;;-0.34;93.01
35443;BME280;21561;55.654;37.592;2023-03-04T09:50:21;97037.19;;;-0.22;92.18
35443;BME280;21561;55.654;37.592;2023-03-04T09:55:38;97022.47;;;0.15;91.18
35443;BME280;21561;55.654;37.592;2023-03-04T10:00:44;97012.16;;;0.32;87.46
35443;BME280;21561;55.654;37.592;2023-03-04T10:03:15;97002.75;;;0.36;86.59
35443;BME280;21561;55.654;37.592;2023-03-04T10:06:02;97000.22;;;0.33;86.39
35443;BME280;21561;55.654;37.592;2023-03-04T10:17:04;96985.00;;;0.24;86.41
35443;BME280;21561;55.654;37.592;2023-03-04T10:22:45;96976.47;;;0.25;86.33
35443;BME280;21561;55.654;37.592;2023-03-04T10:25:21;96964.56;;;0.27;87.46
35443;BME280;21561;55.654;37.592;2023-03-04T10:28:15;96972.97;;;0.38;88.27
35443;BME280;21561;55.654;37.592;2023-03-04T10:33:19;96962.06;;;0.24;89.00
35443;BME280;21561;55.654;37.592;2023-03-04T10:35:55;96954.41;;;0.24;90.67
35443;BME280;21561;55.654;37.592;2023-03-04T10:38:32;96944.16;;;0.27;91.09
35443;BME280;21561;55.654;37.592;2023-03-04T10:41:00;96945.97;;;0.15;91.78
35443;BME280;21561;55.654;37.592;2023-03-04T10:43:27;96940.97;;;0.06;92.99
35443;BME280;21561;55.654;37.592;2023-03-04T10:45:56;96936.78;;;-0.01;94.43
35443;BME280;21561;55.654;37.592;2023-03-04T10:48:25;96941.06;;;-0.08;95.28
35443;BME280;21561;55.654;37.592;2023-03-04T10:50:54;96933.50;;;-0.18;95.43
35443;BME280;21561;55.654;37.592;2023-03-04T10:53:38;96924.22;;;-0.26;96.97
35443;BME280;21561;55.654;37.592;2023-03-04T10:56:33;96925.94;;;-0.31;98.91
35443;BME280;21561;55.654;37.592;2023-03-04T11:01:59;96919.25;;;-0.41;100.00
35443;BME280;21561;55.654;37.592;2023-03-04T11:04:32;96915.75;;;-0.31;100.00
35443;BME280;21561;55.654;37.592;2023-03-04T11:06:59;96901.22;;;-0.18;100.00
35443;BME280;21561;55.654;37.592;2023-03-04T11:09:30;96906.19;;;-0.03;100.00
35443;BME280;21561;55.654;37.592;2023-03-04T11:12:01;96895.09;;;0.03;98.41
35443;BME280;21561;55.654;37.592;2023-03-04T11:14:41;96896.00;;;-0.03;97.16
35443;BME280;21561;55.654;37.592;2023-03-04T11:17:22;96885.09;;;-0.18;96.88
35443;BME280;21561;55.654;37.592;2023-03-04T11:20:10;96877.50;;;-0.25;98.29
35443;BME280;21561;55.654;37.592;2023-03-04T11:22:38;96875.88;;;-0.35;98.90
35443;BME280;21561;55.654;37.592;2023-03-04T11:25:17;96874.22;;;-0.37;99.77
35443;BME280;21561;55.654;37.592;2023-03-04T11:27:52;96872.59;;;-0.51;100.00
35443;BME280;21561;55.654;37.592;2023-03-04T11:32:55;96868.47;;;-0.66;100.00
35443;BME280;21561;55.654;37.592;2023-03-04T11:35:37;96867.66;;;-0.71;100.00
35443;BME280;21561;55.654;37.592;2023-03-04T11:38:16;96860.03;;;-0.69;100.00
35443;BME280;21561;55.654;37.592;2023-03-04T11:40:51;96858.31;;;-0.72;100.00
35443;BME280;21561;55.654;37.592;2023-03-04T11:43:34;96854.09;;;-0.71;100.00
35443;BME280;21561;55.654;37.592;2023-03-04T11:52:53;96843.94;;;-0.78;100.00
35443;BME280;21561;55.654;37.592;2023-03-04T11:58:31;96831.28;;;-0.85;100.00
35443;BME280;21561;55.654;37.592;2023-03-04T12:01:08;96824.53;;;-0.96;100.00
35443;BME280;21561;55.654;37.592;2023-03-04T12:09:23;96812.84;;;-1.24;100.00
35443;BME280;21561;55.654;37.592;2023-03-04T12:14:30;96807.75;;;-1.24;100.00
35443;BME280;21561;55.654;37.592;2023-03-04T12:17:11;96804.38;;;-1.22;100.00
35443;BME280;21561;55.654;37.592;2023-03-04T12:20:25;96792.41;;;-1.12;100.00
35443;BME280;21561;55.654;37.592;2023-03-04T12:25:57;96788.16;;;-1.11;100.00
35443;BME280;21561;55.654;37.592;2023-03-04T12:31:33;96779.69;;;-1.13;100.00
35443;BME280;21561;55.654;37.592;2023-03-04T12:48:04;96752.59;;;-1.19;100.00
35443;BME280;21561;55.654;37.592;2023-03-04T12:56:03;96741.59;;;-1.20;100.00
35443;BME280;21561;55.654;37.592;2023-03-04T12:58:32;96738.22;;;-1.20;100.00
35443;BME280;21561;55.654;37.592;2023-03-04T13:01:05;96730.59;;;-1.22;100.00
35443;BME280;21561;55.654;37.592;2023-03-04T13:03:51;96727.16;;;-1.19;100.00
35443;BME280;21561;55.654;37.592;2023-03-04T13:06:35;96724.59;;;-1.16;100.00
35443;BME280;21561;55.654;37.592;2023-03-04T13:09:13;96722.06;;;-1.18;100.00
35443;BME280;21561;55.654;37.592;2023-03-04T13:11:44;96707.66;;;-1.20;100.00
35443;BME280;21561;55.654;37.592;2023-03-04T13:16:52;96702.53;;;-1.17;100.00
35443;BME280;21561;55.654;37.592;2023-03-04T13:22:41;96704.22;;;-1.13;100.00
35443;BME280;21561;55.654;37.592;2023-03-04T13:30:41;96688.97;;;-1.16;100.00
35443;BME280;21561;55.654;37.592;2023-03-04T13:41:22;96666.91;;;-1.17;100.00
35443;BME280;21561;55.654;37.592;2023-03-04T13:51:31;96654.19;;;-1.14;100.00
35443;BME280;21561;55.654;37.592;2023-03-04T14:01:46;96645.72;;;-1.19;100.00
35443;BME280;21561;55.654;37.592;2023-03-04T14:06:45;96626.28;;;-1.23;100.00
35443;BME280;21561;55.654;37.592;2023-03-04T14:09:21;96621.16;;;-1.20;100.00
35443;BME280;21561;55.654;37.592;2023-03-04T14:11:50;96626.28;;;-1.23;100.00
35443;BME280;21561;55.654;37.592;2023-03-04T14:14:48;96619.44;;;-1.18;100.00
35443;BME280;21561;55.654;37.592;2023-03-04T14:17:50;96615.19;;;-1.18;100.00
35443;BME280;21561;55.654;37.592;2023-03-04T14:20:35;96605.91;;;-1.20;100.00
35443;BME280;21561;55.654;37.592;2023-03-04T14:23:21;96606.78;;;-1.26;100.00
35443;BME280;21561;55.654;37.592;2023-03-04T14:25:49;96604.28;;;-1.27;100.00
35443;BME280;21561;55.654;37.592;2023-03-04T14:28:18;96600.84;;;-1.26;100.00
35443;BME280;21561;55.654;37.592;2023-03-04T14:30:53;96607.63;;;-1.25;100.00
35443;BME280;21561;55.654;37.592;2023-03-04T14:33:24;96599.19;;;-1.27;100.00
35443;BME280;21561;55.654;37.592;2023-03-04T14:35:54;96594.09;;;-1.27;100.00
35443;BME280;21561;55.654;37.592;2023-03-04T14:38:36;96595.75;;;-1.26;100.00
35443;BME280;21561;55.654;37.592;2023-03-04T14:41:10;96595.75;;;-1.26;100.00
35443;BME280;21561;55.654;37.592;2023-03-04T14:46:23;96573.66;;;-1.21;100.00
35443;BME280;21561;55.654;37.592;2023-03-04T14:48:53;96581.38;;;-1.27;100.00
35443;BME280;21561;55.654;37.592;2023-03-04T14:53:56;96575.47;;;-1.32;100.00
35443;BME280;21561;55.654;37.592;2023-03-04T14:56:29;96570.38;;;-1.31;100.00